URSSUSRR

Guest
Details From URSS - Sochi
To USRR - Surgut
Flight Number -
Tags Generated
Created
Modified
Stats Distance 1,600 nm / 2,964 km
Max Altitude 0 ft / 0 m
Waypoints 7
Social Downloads 0
Likes 0
Share VATSIM

Download

Looking for another format? Having issues loading an existing format? Contact us
Advertisement - Login to hide

Notes

Generated

Route

URSS TIKNA RG BEGMA MOTEK GK USRR

ID Type Via Altitude Latitude Longitude Leg Dist Tot Dist Heading (true) Name
O URSS APT - 0 ft / 0 m 43.43576˚ 39.94578˚ - 0 nm - Sochi
TIKNA FIX - 0 ft / 0 m 46.48333˚ 43.26667˚ 231 nm 231 nm 36° / 39° -
RG NDB - 0 ft / 0 m 54.60000˚ 55.84500˚ 682 nm 913 nm 40° / 50° UFA NDB
BEGMA FIX - 0 ft / 0 m 57.03333˚ 61.36667˚ 236 nm 1149 nm 50° / 54° -
MOTEK FIX - 0 ft / 0 m 59.38333˚ 67.25000˚ 233 nm 1383 nm 50° / 55° -
GK NDB - 0 ft / 0 m 61.34333˚ 73.30000˚ 214 nm 1598 nm 54° / 59° SURGUT NDB
O USRR APT - 0 ft / 0 m 61.34364˚ 73.37581˚ 2 nm 1600 nm 89° / 90° -

Altitude Profile

Advertisement - Login to hide

Weather


0- 5 10 15 20 25 30 35+ Temperature / ° C

Clouds and Precipitation
Forecast for 2017-12-15 12:00 UTC. Updated an hour ago

Ground ~20,000 ft ~40,000 ft Winds

URSS

Details ICAO URSS (AER)
Name Sochi
Region Russia
Timezone Europe/Moscow (UTC+3.0)
Stats Elevation 89 ft / 27 m (AMSL)
Location 43.444749° 39.947302°
Runways 2
Magnetic Variation 6.963° E

METAR

URSS 151200Z 19001MPS 9999 NSC 13/06 Q1018 R02/090070 R06/090070 NOSIG RMK R06/15001MPS QFE762

Decode

TAF

TAF URSS 151055Z 1512/1612 VRB01MPS 9999 SCT100 BECMG 1514/1515 06006MPS TEMPO 1517/1608 03007G12MPS BECMG 1609/1610 VRB01MPS

Decode

Departure Runways

ID Width Length Bearing (true) Bearing (mag) Surface Threshold Offset Overrun Length
02 161 ft / 49 m 7,267 ft / 2,215 m 28.98° 22.02° Concrete 0 ft / 0 m 0 ft / 0 m
06 164 ft / 50 m 9,531 ft / 2,905 m 64.90° 57.94° Concrete 262 ft / 80 m 0 ft / 0 m
20 161 ft / 49 m 7,267 ft / 2,215 m 208.99° 202.03° Concrete 0 ft / 0 m 0 ft / 0 m
24 164 ft / 50 m 9,531 ft / 2,905 m 244.92° 237.96° Concrete 0 ft / 0 m 0 ft / 0 m

USRR

Details ICAO USRR (SGC)
Name SURGUT
Region Russia
Timezone Asia/Yekaterinburg (UTC+5.0)
Stats Elevation 200 ft / 61 m (AMSL)
Location 61.343693° 73.401842°
Runways 1
Magnetic Variation 17.100° E

METAR

USRR 151200Z 23006MPS 7000 SCT010 BKN035 M06/M08 Q1029 R25/39//37 NOSIG RMK QFE766

Decode

TAF

TAF USRR 151055Z 1512/1612 22006G11MPS 9999 BKN011 TEMPO 1512/1521 3100 -SHSN BKN007 BKN015CB

Decode

Destination Runways

ID Width Length Bearing (true) Bearing (mag) Surface Threshold Offset Overrun Length
07 148 ft / 45 m 9,112 ft / 2,778 m 89.72° 72.62° Asphalt 0 ft / 0 m 165 ft / 50 m
25 148 ft / 45 m 9,112 ft / 2,778 m 269.76° 252.66° Asphalt 0 ft / 0 m 165 ft / 50 m